Flight Track Log - Related Links

Times and Time Zones

All times are in EDT time to prevent confusion due to time zone crossing. See the DAL3926 flight status page for this flight to view local times or setup timezone preferences in your user account.


Time Position Orientation Groundspeed Altitude Reporting Facility
EDT Latitude Longitude Course Direction KTS MPH feet Rate Location/Type
Sun 12:57:38 PM 44.8781 -93.1833 96° East 148 170 2,000  Level FAA TRACON SMA TRACON (SMA)
Sun 12:57:57 PM 44.8767 -93.1658 96° East 147 169 2,900 2,923 Climbing FAA TRACON SMA TRACON (SMA)
Sun 12:58:17 PM 44.8767 -93.1428 90° East 152 175 3,900 2,700 Climbing FAA TRACON SMA TRACON (SMA)
Sun 12:58:37 PM 44.8781 -93.1217 85° East 169 194 4,700 2,100 Climbing FAA TRACON SMA TRACON (SMA)
Sun 12:58:57 PM 44.8856 -93.1000 64° Northeast 196 226 5,300 1,756 Climbing FAA TRACON SMA TRACON (SMA)
Sun 12:59:18 PM 44.9103 -93.0842 24° Northeast 253 291 5,900 1,756 Climbing FAA TRACON SMA TRACON (SMA)
Sun 12:59:38 PM 44.9344 -93.0767 12° North 282 325 6,500 2,400 Climbing FAA TRACON SMA TRACON (SMA)
Sun 12:59:58 PM 44.9597 -93.0772 359° North 295 339 7,500 2,700 Climbing FAA TRACON SMA TRACON (SMA)
Sun 01:00:38 PM 45.0167 -93.0747 North 297 342 9,200 2,300 Climbing FAA TRACON SMA TRACON (SMA)
Sun 01:00:58 PM 45.0436 -93.0736 North 310 357 9,800 2,400 Climbing FAA TRACON SMA TRACON (SMA)
Sun 01:01:18 PM 45.0778 -93.0708 North 318 366 10,800 1,950 Climbing FAA TRACON SMA TRACON (SMA)
Sun 01:01:38 PM 45.1058 -93.0683 North 324 373 11,100 600 Climbing FAA TRACON SMA TRACON (SMA)
Sun 01:01:58 PM 45.1356 -93.0664 North 342 394 11,200 1,200 Climbing FAA TRACON SMA TRACON (SMA)
Sun 01:02:18 PM 45.1747 -93.0636 North 363 418 11,900 1,800 Climbing FAA TRACON SMA TRACON (SMA)
Sun 01:02:38 PM 45.2064 -93.0617 North 369 425 12,400 1,500 Climbing FAA TRACON SMA TRACON (SMA)
Sun 01:02:58 PM 45.2386 -93.0589 North 376 433 12,900 2,100 Climbing FAA TRACON SMA TRACON (SMA)
Sun 01:03:18 PM 45.2789 -93.0550 North 377 434 13,800 2,100 Climbing FAA TRACON SMA TRACON (SMA)
Sun 01:03:38 PM 45.3114 -93.0511 North 379 436 14,300 1,650 Climbing FAA TRACON SMA TRACON (SMA)
Sun 01:03:58 PM 45.3514 -93.0353 16° North 387 445 14,900 1,050 Climbing FAA TRACON SMA TRACON (SMA)
Sun 01:04:18 PM 45.3828 -93.0183 21° North 394 453 15,000 154 Climbing FAA TRACON SMA TRACON (SMA)
Sun 01:04:37 PM 45.4144 -93.0008 21° North 396 456 15,000  Level FAA TRACON SMA TRACON (SMA)
Sun 01:04:57 PM 45.4461 -92.9831 21° North 398 458 15,000  Level FAA TRACON SMA TRACON (SMA)
Sun 01:05:18 PM 45.4858 -92.9611 21° North 398 458 15,000  Level FAA TRACON SMA TRACON (SMA)
Sun 01:05:38 PM 45.5178 -92.9450 19° North 397 457 15,000  Level FAA TRACON SMA TRACON (SMA)
Sun 01:05:58 PM 45.5497 -92.9269 22° Northeast 397 457 15,000  Level FAA TRACON SMA TRACON (SMA)
Sun 01:06:18 PM 45.5892 -92.9053 21° North 397 457 15,000  Level FAA TRACON SMA TRACON (SMA)
Sun 01:06:38 PM 45.6214 -92.8883 20° North 397 457 15,000  Level FAA TRACON SMA TRACON (SMA)
Sun 01:07:18 PM 45.6928 -92.8489 21° North 397 457 15,000  Level FAA TRACON SMA TRACON (SMA)
Sun 01:07:38 PM 45.7247 -92.8317 21° North 398 458 15,000  Level FAA TRACON SMA TRACON (SMA)
Sun 01:07:58 PM 45.7564 -92.8144 21° North 396 456 15,000  Level FAA TRACON SMA TRACON (SMA)
Sun 01:08:18 PM 45.7964 -92.7928 21° North 398 458 15,000  Level FAA TRACON SMA TRACON (SMA)
Sun 01:08:38 PM 45.8281 -92.7753 21° North 396 456 15,000  Level FAA TRACON SMA TRACON (SMA)
Sun 01:09:22 PM 45.8981 -92.7336 22° Northeast 394 453 15,000 -57 Level Minneapolis Center
Sun 01:10:24 PM 46.0003 -92.6761 21° North 394 453 14,900 -537 Descending Minneapolis Center
Sun 01:11:25 PM 46.1014 -92.6175 22° Northeast 394 453 13,900 -976 Descending Minneapolis Center
Sun 01:12:27 PM 46.2114 -92.5553 21° North 389 448 12,900 -829 Descending Minneapolis Center
Sun 01:13:28 PM 46.3075 -92.4983 22° Northeast 380 437 12,200 -1,317 Descending Minneapolis Center
Sun 01:14:30 PM 46.4017 -92.4575 17° North 364 419 10,200 -1,902 Descending Minneapolis Center
Sun 01:15:31 PM 46.4836 -92.4433 North 310 357 8,300 -1,756 Descending Minneapolis Center
Sun 01:16:33 PM 46.5644 -92.4222 10° North 301 346 6,600 -1,463 Descending Minneapolis Center
Sun 01:17:34 PM 46.6278 -92.4075 North 297 342 5,300 -1,463 Descending Minneapolis Center
Sun 01:18:36 PM 46.7150 -92.3850 10° North 283 326 3,600 -1,171 Descending Minneapolis Center
Sun 01:19:37 PM 46.7886 -92.3656 10° North 254 292 2,900 -439 Descending Minneapolis Center
Sun 01:20:39 PM 46.8325 -92.3406 21° North 210 242 2,700 -195 Descending Minneapolis Center
Sun 01:21:40 PM 46.8453 -92.2958 67° East 159 183 2,500 -390 Descending Minneapolis Center
Sun 01:22:42 PM 46.8425 -92.2375 94° East 145 167 1,900 -581 Descending Minneapolis Center

Login

Don't have an account? Register now (free) for customized features, flight alerts, and more!